createdAt,value
2018-07-19T00:01:25.753Z,101289.16
2018-07-19T00:03:51.748Z,101290.77
2018-07-19T00:06:17.756Z,101287.83
2018-07-19T00:08:43.761Z,101287.61
2018-07-19T00:11:09.775Z,101288.91
2018-07-19T00:13:35.779Z,101287.58
2018-07-19T00:16:01.937Z,101291.09
2018-07-19T00:18:27.911Z,101289.38
2018-07-19T00:20:53.899Z,101290.23
2018-07-19T00:23:19.904Z,101284.56
2018-07-19T00:25:45.905Z,101285.25
2018-07-19T00:28:11.896Z,101289.73
2018-07-19T00:30:37.915Z,101291.23
2018-07-19T00:33:03.990Z,101285.10
2018-07-19T00:35:30.663Z,101287.76
2018-07-19T00:37:56.620Z,101287.41
2018-07-19T00:40:22.738Z,101287.76
2018-07-19T00:42:48.712Z,101286.61
2018-07-19T00:45:14.673Z,101288.41
2018-07-19T00:47:40.638Z,101286.68
2018-07-19T00:50:06.632Z,101292.53
2018-07-19T00:52:32.639Z,101289.70
2018-07-19T00:54:58.654Z,101284.42
2018-07-19T00:57:24.644Z,101281.09
2018-07-19T00:59:50.627Z,101281.73
2018-07-19T01:02:16.652Z,101280.91
2018-07-19T01:04:42.703Z,101277.11
2018-07-19T01:07:08.680Z,101275.31
2018-07-19T01:09:34.677Z,101276.75
2018-07-19T01:12:00.665Z,101276.42
2018-07-19T01:14:26.674Z,101279.08
2018-07-19T01:16:52.668Z,101278.39
2018-07-19T01:19:18.652Z,101279.22
2018-07-19T01:21:44.624Z,101279.73
2018-07-19T01:24:10.621Z,101271.94
2018-07-19T01:26:36.608Z,101277.11
2018-07-19T01:29:02.613Z,101283.09
2018-07-19T01:31:28.608Z,101283.59
2018-07-19T01:33:54.780Z,101272.66
2018-07-19T01:36:20.796Z,101276.31
2018-07-19T01:38:46.758Z,101278.47
2018-07-19T01:41:12.766Z,101281.13
2018-07-19T01:43:38.758Z,101279.11
2018-07-19T01:46:04.761Z,101281.77
2018-07-19T01:48:30.762Z,101281.13
2018-07-19T01:50:56.735Z,101285.42
2018-07-19T01:53:22.750Z,101293.03
2018-07-19T01:55:48.726Z,101292.06
2018-07-19T01:58:14.740Z,101290.09
2018-07-19T02:00:40.749Z,101285.39
2018-07-19T02:03:06.742Z,101289.55
2018-07-19T02:05:32.738Z,101287.05
2018-07-19T02:07:58.708Z,101289.84
2018-07-19T02:10:24.689Z,101287.37
2018-07-19T02:12:50.672Z,101285.39
2018-07-19T02:15:16.663Z,101289.84
2018-07-19T02:17:42.654Z,101297.34
2018-07-19T02:20:08.640Z,101295.47
2018-07-19T02:22:34.736Z,101296.19
2018-07-19T02:25:00.726Z,101300.59
2018-07-19T02:27:26.727Z,101302.75
2018-07-19T02:29:52.832Z,101297.80
2018-07-19T02:32:18.812Z,101297.95
2018-07-19T02:34:44.825Z,101302.64
2018-07-19T02:37:10.814Z,101299.27
2018-07-19T02:39:36.814Z,101297.77
2018-07-19T02:42:02.766Z,101299.59
2018-07-19T02:44:28.766Z,101298.95
2018-07-19T02:46:54.757Z,101292.78
2018-07-19T02:49:20.808Z,101290.81
2018-07-19T02:51:46.818Z,101289.48
2018-07-19T02:54:12.807Z,101283.02
2018-07-19T02:56:38.792Z,101285.36
2018-07-19T02:59:04.783Z,101286.36
2018-07-19T03:01:30.767Z,101285.50
2018-07-19T03:03:56.752Z,101279.69
2018-07-19T03:06:22.776Z,101287.47
2018-07-19T03:08:48.744Z,101287.15
2018-07-19T03:11:14.728Z,101282.98
2018-07-19T03:13:40.717Z,101292.78
2018-07-19T03:16:06.695Z,101287.47
2018-07-19T03:18:32.687Z,101292.89
2018-07-19T03:20:58.678Z,101296.86
2018-07-19T03:23:24.645Z,101301.48
2018-07-19T03:25:50.628Z,101300.52
2018-07-19T03:28:16.594Z,101300.84
2018-07-19T03:30:42.592Z,101292.89
2018-07-19T03:33:09.316Z,101295.86
2018-07-19T03:35:35.280Z,101294.49
2018-07-19T03:38:01.294Z,101301.31
2018-07-19T03:40:27.268Z,101294.35
2018-07-19T03:42:53.245Z,101289.87
2018-07-19T03:45:19.223Z,101294.35
2018-07-19T03:47:45.204Z,101292.02
2018-07-19T03:50:11.191Z,101295.18
2018-07-19T03:52:37.164Z,101286.39
2018-07-19T03:55:03.218Z,101289.36
2018-07-19T03:57:29.299Z,101294.48
2018-07-19T03:59:55.264Z,101288.82
2018-07-19T04:02:21.253Z,101286.48
2018-07-19T04:04:47.301Z,101286.67
2018-07-19T04:07:13.331Z,101291.16
2018-07-19T04:09:39.296Z,101288.03
2018-07-19T04:12:05.289Z,101286.84
2018-07-19T04:14:31.231Z,101287.13
2018-07-19T04:16:57.285Z,101287.81
2018-07-19T04:19:23.228Z,101291.80
2018-07-19T04:21:49.203Z,101284.63
2018-07-19T04:24:15.279Z,101289.64
2018-07-19T04:26:41.262Z,101286.48
2018-07-19T04:29:07.264Z,101292.58
2018-07-19T04:31:33.395Z,101287.95
2018-07-19T04:33:59.391Z,101290.80
2018-07-19T04:36:25.432Z,101292.98
2018-07-19T04:38:51.473Z,101286.80
2018-07-19T04:41:17.458Z,101286.67
2018-07-19T04:43:43.457Z,101285.16
2018-07-19T04:46:09.452Z,101289.73
2018-07-19T04:48:35.461Z,101286.80
2018-07-19T04:51:01.464Z,101283.51
2018-07-19T04:53:27.452Z,101292.98
2018-07-19T04:55:53.513Z,101289.18
2018-07-19T04:58:19.494Z,101288.95
2018-07-19T05:00:45.510Z,101295.55
2018-07-19T05:03:11.533Z,101304.05
2018-07-19T05:05:37.537Z,101301.04
2018-07-19T05:08:03.521Z,101304.92
2018-07-19T05:10:29.503Z,101298.74
2018-07-19T05:12:55.465Z,101299.25
2018-07-19T05:15:21.447Z,101304.92
2018-07-19T05:17:47.442Z,101300.98
2018-07-19T05:20:13.425Z,101300.80
2018-07-19T05:22:39.428Z,101301.13
2018-07-19T05:25:05.425Z,101304.47
2018-07-19T05:27:31.442Z,101299.48
2018-07-19T05:29:57.416Z,101299.94
2018-07-19T05:32:23.384Z,101302.81
2018-07-19T05:34:49.361Z,101301.31
2018-07-19T05:37:15.338Z,101304.32
2018-07-19T05:39:41.349Z,101312.88
2018-07-19T05:42:07.370Z,101310.23
2018-07-19T05:44:33.321Z,101308.12
2018-07-19T05:46:59.328Z,101306.61
2018-07-19T05:49:25.329Z,101304.42
2018-07-19T05:51:51.684Z,101313.06
2018-07-19T05:54:17.665Z,101306.71
2018-07-19T05:56:43.781Z,101308.12
2018-07-19T05:59:09.769Z,101311.78
2018-07-19T06:01:35.944Z,101309.17
2018-07-19T06:04:01.910Z,101310.89
2018-07-19T06:06:27.900Z,101310.78
2018-07-19T06:08:53.885Z,101317.12
2018-07-19T06:11:19.895Z,101311.86
2018-07-19T06:13:45.875Z,101307.87
2018-07-19T06:16:11.912Z,101309.02
2018-07-19T06:18:37.861Z,101309.64
2018-07-19T06:21:03.805Z,101315.80
2018-07-19T06:23:29.799Z,101314.95
2018-07-19T06:25:55.932Z,101317.48
2018-07-19T06:28:21.940Z,101316.45
2018-07-19T06:30:47.934Z,101313.05
2018-07-19T06:33:13.957Z,101309.17
2018-07-19T06:35:39.961Z,101315.34
2018-07-19T06:38:05.943Z,101313.73
2018-07-19T06:40:31.922Z,101319.54
2018-07-19T06:42:58.125Z,101315.37
2018-07-19T06:45:24.148Z,101316.52
2018-07-19T06:47:50.148Z,101322.19
2018-07-19T06:50:16.139Z,101318.29
2018-07-19T06:52:42.173Z,101318.53
2018-07-19T06:55:08.292Z,101321.05
2018-07-19T06:57:34.435Z,101320.09
2018-07-19T07:00:00.316Z,101319.30
2018-07-19T07:02:26.298Z,101319.58
2018-07-19T07:04:52.281Z,101322.27
2018-07-19T07:07:18.264Z,101326.72
2018-07-19T07:09:44.349Z,101324.39
2018-07-19T07:12:10.390Z,101319.44
2018-07-19T07:14:36.417Z,101324.24
2018-07-19T07:17:02.430Z,101325.85
2018-07-19T07:19:28.460Z,101327.86
2018-07-19T07:21:54.476Z,101326.03
2018-07-19T07:24:20.465Z,101327.44
2018-07-19T07:26:46.537Z,101336.55
2018-07-19T07:29:12.500Z,101334.54
2018-07-19T07:31:38.487Z,101334.33
2018-07-19T07:34:04.485Z,101331.06
2018-07-19T07:36:30.443Z,101334.58
2018-07-19T07:38:56.459Z,101334.25
2018-07-19T07:41:22.434Z,101336.09
2018-07-19T07:43:48.421Z,101331.03
2018-07-19T07:46:14.435Z,101327.66
2018-07-19T07:48:40.431Z,101334.91
2018-07-19T07:51:06.420Z,101335.48
2018-07-19T07:53:32.420Z,101343.13
2018-07-19T07:55:58.418Z,101337.48
2018-07-19T07:58:24.416Z,101337.81
2018-07-19T08:00:50.393Z,101344.59
2018-07-19T08:03:16.428Z,101341.94
2018-07-19T08:05:42.446Z,101344.09
2018-07-19T08:08:08.419Z,101342.33
2018-07-19T08:10:34.441Z,101337.45
2018-07-19T08:13:00.429Z,101334.77
2018-07-19T08:15:26.501Z,101340.86
2018-07-19T08:17:52.520Z,101336.55
2018-07-19T08:20:18.523Z,101337.55
2018-07-19T08:22:44.527Z,101332.64
2018-07-19T08:25:10.504Z,101327.60
2018-07-19T08:27:36.445Z,101336.80
2018-07-19T08:30:02.431Z,101331.31
2018-07-19T08:32:28.437Z,101329.34
2018-07-19T08:34:54.443Z,101329.52
2018-07-19T08:37:20.410Z,101327.05
2018-07-19T08:39:46.485Z,101329.41
2018-07-19T08:42:12.529Z,101331.85
2018-07-19T08:44:38.508Z,101328.19
2018-07-19T08:47:04.592Z,101320.94
2018-07-19T08:49:30.602Z,101322.77
2018-07-19T08:51:56.611Z,101318.10
2018-07-19T08:54:22.679Z,101315.95
2018-07-19T08:56:48.720Z,101313.83
2018-07-19T08:59:14.674Z,101316.42
2018-07-19T09:01:40.678Z,101319.19
2018-07-19T09:04:06.791Z,101316.86
2018-07-19T09:06:32.825Z,101308.69
2018-07-19T09:08:58.825Z,101308.19
2018-07-19T09:11:24.835Z,101309.34
2018-07-19T09:13:50.868Z,101308.20
2018-07-19T09:16:16.951Z,101307.56
2018-07-19T09:18:42.932Z,101306.23
2018-07-19T09:21:08.940Z,101301.92
2018-07-19T09:23:35.032Z,101296.98
2018-07-19T09:26:01.022Z,101302.06
2018-07-19T09:28:27.091Z,101297.66
2018-07-19T09:30:53.113Z,101299.73
2018-07-19T09:33:19.111Z,101290.09
2018-07-19T09:35:45.118Z,101288.31
2018-07-19T09:38:11.108Z,101299.26
2018-07-19T09:40:37.075Z,101290.95
2018-07-19T09:43:03.082Z,101289.11
2018-07-19T09:45:29.063Z,101289.91
2018-07-19T09:47:55.039Z,101285.05
2018-07-19T09:50:21.045Z,101284.00
2018-07-19T09:52:47.083Z,101282.92
2018-07-19T09:55:13.083Z,101278.11
2018-07-19T09:57:39.158Z,101279.08
2018-07-19T10:00:05.136Z,101273.25
2018-07-19T10:02:31.186Z,101270.09
2018-07-19T10:04:57.203Z,101276.20
2018-07-19T10:07:23.301Z,101277.36
2018-07-19T10:09:49.277Z,101268.16
2018-07-19T10:12:15.307Z,101275.27
2018-07-19T10:14:41.283Z,101271.14
2018-07-19T10:17:07.292Z,101272.30
2018-07-19T10:19:33.219Z,101270.63
2018-07-19T10:21:59.216Z,101264.13
2018-07-19T10:24:25.282Z,101261.73
2018-07-19T10:26:51.196Z,101258.48
2018-07-19T10:29:17.173Z,101263.81
2018-07-19T10:31:43.233Z,101267.20
2018-07-19T10:34:09.279Z,101262.70
2018-07-19T10:36:35.203Z,101254.20
2018-07-19T10:39:01.283Z,101257.05
2018-07-19T10:41:27.256Z,101256.53
2018-07-19T10:43:53.240Z,101258.46
2018-07-19T10:46:19.287Z,101259.28
2018-07-19T10:48:45.295Z,101257.21
2018-07-19T10:51:11.260Z,101253.73
2018-07-19T10:53:37.247Z,101251.75
2018-07-19T10:56:03.316Z,101249.41
2018-07-19T10:58:29.386Z,101247.73
2018-07-19T11:00:55.351Z,101246.41
2018-07-19T11:03:21.354Z,101242.11
2018-07-19T11:05:47.425Z,101241.45
2018-07-19T11:08:13.387Z,101238.89
2018-07-19T11:10:39.368Z,101239.13
2018-07-19T11:13:05.357Z,101234.31
2018-07-19T11:15:31.321Z,101233.47
2018-07-19T11:17:57.376Z,101229.49
2018-07-19T11:20:23.425Z,101238.48
2018-07-19T11:22:49.433Z,101232.72
2018-07-19T11:25:15.401Z,101228.23
2018-07-19T11:27:41.379Z,101228.51
2018-07-19T11:30:07.407Z,101217.88
2018-07-19T11:32:33.424Z,101222.54
2018-07-19T11:34:59.466Z,101219.55
2018-07-19T11:37:25.557Z,101217.08
2018-07-19T11:39:51.517Z,101216.78
2018-07-19T11:42:17.562Z,101218.04
2018-07-19T11:44:43.542Z,101217.53
2018-07-19T11:47:09.499Z,101209.93
2018-07-19T11:49:35.455Z,101211.63
2018-07-19T11:52:01.424Z,101208.28
2018-07-19T11:54:27.400Z,101206.91
2018-07-19T11:56:53.390Z,101201.02
2018-07-19T11:59:19.345Z,101205.66
2018-07-19T12:01:45.374Z,101196.87
2018-07-19T12:04:11.334Z,101194.36
2018-07-19T12:06:37.343Z,101194.31
2018-07-19T12:09:03.306Z,101187.87
2018-07-19T12:11:29.276Z,101187.59
2018-07-19T12:13:55.258Z,101187.22
2018-07-19T12:16:21.227Z,101182.33
2018-07-19T12:18:47.283Z,101179.37
2018-07-19T12:21:13.320Z,101179.05
2018-07-19T12:23:39.286Z,101174.09
2018-07-19T12:26:05.977Z,101171.13
2018-07-19T12:28:31.976Z,101178.42
2018-07-19T12:30:58.089Z,101173.74
2018-07-19T12:33:24.036Z,101177.27
2018-07-19T12:35:50.023Z,101173.30
2018-07-19T12:38:15.997Z,101175.63
2018-07-19T12:40:41.998Z,101163.33
2018-07-19T12:43:07.985Z,101166.67
2018-07-19T12:45:33.962Z,101170.45
2018-07-19T12:47:59.931Z,101165.47
2018-07-19T12:50:25.956Z,101166.61
2018-07-19T12:52:51.900Z,101168.42
2018-07-19T12:55:17.903Z,101167.12
2018-07-19T12:57:43.869Z,101156.17
2018-07-19T13:00:09.845Z,101165.42
2018-07-19T13:02:35.793Z,101157.36
2018-07-19T13:05:01.761Z,101162.81
2018-07-19T13:07:27.731Z,101160.95
2018-07-19T13:09:53.696Z,101158.44
2018-07-19T13:12:19.673Z,101167.91
2018-07-19T13:14:45.679Z,101155.46
2018-07-19T13:17:11.638Z,101154.13
2018-07-19T13:19:37.633Z,101156.79
2018-07-19T13:22:03.649Z,101155.61
2018-07-19T13:24:29.661Z,101156.52
2018-07-19T13:26:55.618Z,101156.17
2018-07-19T13:29:21.576Z,101147.81
2018-07-19T13:31:47.652Z,101150.52
2018-07-19T13:34:13.646Z,101150.52
2018-07-19T13:36:39.646Z,101140.05
2018-07-19T13:39:05.681Z,101150.20
2018-07-19T13:41:31.676Z,101143.73
2018-07-19T13:43:57.705Z,101142.70
2018-07-19T13:46:23.671Z,101143.00
2018-07-19T13:48:49.645Z,101139.23
2018-07-19T13:51:15.607Z,101143.51
2018-07-19T13:53:41.594Z,101139.22
2018-07-19T13:56:07.584Z,101141.38
2018-07-19T13:58:33.555Z,101140.56
2018-07-19T14:00:59.521Z,101136.23
2018-07-19T14:03:25.533Z,101131.94
2018-07-19T14:05:51.525Z,101130.77
2018-07-19T14:08:17.559Z,101125.61
2018-07-19T14:10:43.631Z,101124.45
2018-07-19T14:13:09.634Z,101113.33
2018-07-19T14:15:35.632Z,101111.50
2018-07-19T14:18:01.689Z,101115.80
2018-07-19T14:20:27.662Z,101107.83
2018-07-19T14:22:53.631Z,101108.99
2018-07-19T14:25:19.623Z,101111.34
2018-07-19T14:27:45.656Z,101102.03
2018-07-19T14:30:11.639Z,101107.67
2018-07-19T14:32:37.637Z,101109.67
2018-07-19T14:35:03.632Z,101107.67
2018-07-19T14:37:29.624Z,101105.70
2018-07-19T14:39:55.595Z,101105.68
2018-07-19T14:42:21.604Z,101106.01
2018-07-19T14:44:47.586Z,101094.38
2018-07-19T14:47:13.560Z,101094.41
2018-07-19T14:49:39.560Z,101096.39
2018-07-19T14:52:05.743Z,101090.06
2018-07-19T14:54:31.820Z,101090.90
2018-07-19T14:56:57.789Z,101092.41
2018-07-19T14:59:23.891Z,101088.26
2018-07-19T15:01:49.891Z,101087.41
2018-07-19T15:04:15.853Z,101085.75
2018-07-19T15:06:41.822Z,101082.40
2018-07-19T15:09:07.794Z,101083.27
2018-07-19T15:11:33.816Z,101079.94
2018-07-19T15:13:59.779Z,101074.11
2018-07-19T15:16:26.145Z,101069.47
2018-07-19T15:18:52.128Z,101067.64
2018-07-19T15:21:19.136Z,101069.97
2018-07-19T15:23:45.108Z,101064.17
2018-07-19T15:26:11.100Z,101068.13
2018-07-19T15:28:37.064Z,101060.33
2018-07-19T15:31:03.079Z,101061.17
2018-07-19T15:33:29.060Z,101056.17
2018-07-19T15:35:55.049Z,101054.03
2018-07-19T15:38:21.051Z,101051.03
2018-07-19T15:40:47.044Z,101050.66
2018-07-19T15:43:13.125Z,101053.17
2018-07-19T15:45:39.115Z,101044.19
2018-07-19T15:48:05.102Z,101042.54
2018-07-19T15:50:31.082Z,101039.22
2018-07-19T15:52:57.143Z,101047.22
2018-07-19T15:55:23.120Z,101039.54
2018-07-19T15:57:49.093Z,101037.23
2018-07-19T16:00:15.132Z,101035.73
2018-07-19T16:02:41.128Z,101032.60
2018-07-19T16:05:07.115Z,101027.09
2018-07-19T16:07:33.164Z,101023.94
2018-07-19T16:09:59.286Z,101023.23
2018-07-19T16:12:25.241Z,101026.75
2018-07-19T16:14:51.220Z,101029.57
2018-07-19T16:17:17.237Z,101023.59
2018-07-19T16:19:43.205Z,101023.27
2018-07-19T16:22:09.181Z,101019.16
2018-07-19T16:24:35.157Z,101021.27
2018-07-19T16:27:01.149Z,101015.16
2018-07-19T16:29:27.209Z,101016.97
2018-07-19T16:31:53.237Z,101016.15
2018-07-19T16:34:19.226Z,101016.30
2018-07-19T16:36:45.220Z,101012.66
2018-07-19T16:39:11.214Z,101016.14
2018-07-19T16:41:37.211Z,101009.00
2018-07-19T16:44:03.238Z,101010.96
2018-07-19T16:46:29.246Z,101004.16
2018-07-19T16:48:55.298Z,101000.45
2018-07-19T16:51:21.265Z,101002.52
2018-07-19T16:53:47.258Z,101000.64
2018-07-19T16:56:13.235Z,101002.16
2018-07-19T16:58:39.228Z,100996.02
2018-07-19T17:01:05.204Z,100999.03
2018-07-19T17:03:31.255Z,100999.53
2018-07-19T17:05:57.244Z,101001.02
2018-07-19T17:08:23.209Z,101002.00
2018-07-19T17:10:49.204Z,101002.16
2018-07-19T17:13:15.198Z,101000.36
2018-07-19T17:15:41.206Z,100996.72
2018-07-19T17:18:07.189Z,100991.56
2018-07-19T17:20:33.209Z,100994.03
2018-07-19T17:22:59.209Z,100991.91
2018-07-19T17:25:25.227Z,100992.89
2018-07-19T17:27:51.206Z,100986.09
2018-07-19T17:30:17.183Z,100992.20
2018-07-19T17:32:43.151Z,100983.74
2018-07-19T17:35:09.134Z,100985.39
2018-07-19T17:37:35.117Z,100989.88
2018-07-19T17:40:01.103Z,100986.05
2018-07-19T17:42:27.086Z,100987.42
2018-07-19T17:44:53.068Z,100987.38
2018-07-19T17:47:19.032Z,100989.22
2018-07-19T17:49:45.002Z,100986.72
2018-07-19T17:52:11.009Z,100988.05
2018-07-19T17:54:36.987Z,100986.41
2018-07-19T17:57:02.995Z,100986.72
2018-07-19T17:59:29.026Z,100986.72
2018-07-19T18:01:54.995Z,100987.22
2018-07-19T18:04:21.042Z,100985.36
2018-07-19T18:06:47.091Z,100985.42
2018-07-19T18:09:13.083Z,100982.26
2018-07-19T18:11:39.074Z,100986.24
2018-07-19T18:14:05.049Z,100983.40
2018-07-19T18:16:31.070Z,100982.77
2018-07-19T18:18:57.046Z,100985.39
2018-07-19T18:21:23.028Z,100982.41
2018-07-19T18:23:49.008Z,100987.06
2018-07-19T18:26:15.023Z,100981.75
2018-07-19T18:28:40.989Z,100980.73
2018-07-19T18:31:07.095Z,100978.91
2018-07-19T18:33:33.092Z,100982.58
2018-07-19T18:35:59.083Z,100977.57
2018-07-19T18:38:25.067Z,100974.60
2018-07-19T18:40:51.054Z,100983.08
2018-07-19T18:43:17.040Z,100976.78
2018-07-19T18:45:43.040Z,100978.78
2018-07-19T18:48:09.025Z,100980.58
2018-07-19T18:50:35.022Z,100979.41
2018-07-19T18:53:01.045Z,100982.22
2018-07-19T18:55:27.040Z,100977.41
2018-07-19T18:57:53.017Z,100980.39
2018-07-19T19:00:18.984Z,100978.91
2018-07-19T19:02:45.012Z,100979.56
2018-07-19T19:05:10.960Z,100977.06
2018-07-19T19:07:36.957Z,100982.73
2018-07-19T19:10:02.951Z,100980.89
2018-07-19T19:12:28.915Z,100984.03
2018-07-19T19:14:54.889Z,100983.05
2018-07-19T19:17:20.881Z,100988.05
2018-07-19T19:19:46.848Z,100985.73
2018-07-19T19:22:12.830Z,100986.09
2018-07-19T19:24:38.859Z,100987.03
2018-07-19T19:27:05.105Z,100991.18
2018-07-19T19:29:31.072Z,100987.38
2018-07-19T19:31:57.049Z,100987.38
2018-07-19T19:34:23.123Z,100996.53
2018-07-19T19:36:49.012Z,100997.00
2018-07-19T19:39:15.009Z,101001.15
2018-07-19T19:41:41.004Z,100998.80
2018-07-19T19:44:06.976Z,101001.62
2018-07-19T19:46:32.969Z,101004.13
2018-07-19T19:48:58.957Z,101000.95
2018-07-19T19:51:24.953Z,100997.98
2018-07-19T19:53:50.997Z,101001.81
2018-07-19T19:56:17.075Z,101001.42
2018-07-19T19:58:43.180Z,101000.98
2018-07-19T20:01:09.128Z,101000.59
2018-07-19T20:03:35.100Z,100999.63
2018-07-19T20:06:01.066Z,101000.98
2018-07-19T20:08:27.037Z,100999.00
2018-07-19T20:10:53.015Z,101002.16
2018-07-19T20:13:19.023Z,101000.48
2018-07-19T20:15:44.999Z,101001.66
2018-07-19T20:18:10.963Z,101002.32
2018-07-19T20:20:36.940Z,101006.59
2018-07-19T20:23:02.938Z,101006.11
2018-07-19T20:25:28.888Z,101001.50
2018-07-19T20:27:54.876Z,101003.68
2018-07-19T20:30:20.853Z,101010.80
2018-07-19T20:32:46.834Z,101010.33
2018-07-19T20:35:12.807Z,101015.14
2018-07-19T20:37:38.849Z,101007.98
2018-07-19T20:40:04.858Z,101006.50
2018-07-19T20:42:30.829Z,101011.66
2018-07-19T20:44:56.839Z,101007.67
2018-07-19T20:47:22.810Z,101019.78
2018-07-19T20:49:48.794Z,101014.98
2018-07-19T20:52:14.774Z,101016.15
2018-07-19T20:54:40.744Z,101009.47
2018-07-19T20:57:06.701Z,101012.51
2018-07-19T20:59:32.766Z,101017.13
2018-07-19T21:01:58.748Z,101022.28
2018-07-19T21:04:24.703Z,101020.95
2018-07-19T21:06:50.681Z,101027.25
2018-07-19T21:09:16.677Z,101018.62
2018-07-19T21:11:42.647Z,101020.45
2018-07-19T21:14:08.649Z,101018.78
2018-07-19T21:16:34.613Z,101019.79
2018-07-19T21:19:00.602Z,101020.14
2018-07-19T21:21:26.589Z,101025.08
2018-07-19T21:23:52.601Z,101027.58
2018-07-19T21:26:18.569Z,101024.22
2018-07-19T21:28:44.531Z,101019.09
2018-07-19T21:31:10.507Z,101023.08
2018-07-19T21:33:36.480Z,101028.59
2018-07-19T21:36:02.492Z,101026.09
2018-07-19T21:38:28.613Z,101023.23
2018-07-19T21:40:54.590Z,101028.75
2018-07-19T21:43:20.597Z,101025.23
2018-07-19T21:45:46.642Z,101029.53
2018-07-19T21:48:12.697Z,101029.57
2018-07-19T21:50:38.669Z,101034.22
2018-07-19T21:53:04.621Z,101033.11
2018-07-19T21:55:30.566Z,101035.58
2018-07-19T21:57:56.532Z,101035.90
2018-07-19T22:00:22.518Z,101037.23
2018-07-19T22:02:48.480Z,101037.25
2018-07-19T22:05:14.424Z,101040.07
2018-07-19T22:07:40.434Z,101036.74
2018-07-19T22:10:06.427Z,101032.58
2018-07-19T22:12:32.436Z,101034.03
2018-07-19T22:14:58.390Z,101037.89
2018-07-19T22:17:24.465Z,101031.88
2018-07-19T22:19:50.449Z,101034.89
2018-07-19T22:22:16.433Z,101035.98
2018-07-19T22:24:42.456Z,101035.67
2018-07-19T22:27:08.418Z,101031.22
2018-07-19T22:29:34.380Z,101034.54
2018-07-19T22:32:00.384Z,101030.67
2018-07-19T22:34:26.349Z,101034.06
2018-07-19T22:36:52.373Z,101033.21
2018-07-19T22:39:18.360Z,101034.03
2018-07-19T22:41:44.329Z,101040.20
2018-07-19T22:44:10.312Z,101043.84
2018-07-19T22:46:36.338Z,101040.52
2018-07-19T22:49:02.520Z,101030.67
2018-07-19T22:51:28.488Z,101033.55
2018-07-19T22:53:54.548Z,101035.90
2018-07-19T22:56:20.532Z,101040.58
2018-07-19T22:58:46.492Z,101041.72
2018-07-19T23:01:12.456Z,101040.17
2018-07-19T23:03:38.435Z,101034.47
2018-07-19T23:06:04.413Z,101031.64
2018-07-19T23:08:30.423Z,101030.50
2018-07-19T23:10:56.384Z,101034.49
2018-07-19T23:13:22.438Z,101040.48
2018-07-19T23:15:48.392Z,101029.03
2018-07-19T23:18:14.415Z,101028.72
2018-07-19T23:20:40.392Z,101024.78
2018-07-19T23:23:06.385Z,101022.58
2018-07-19T23:25:32.335Z,101025.42
2018-07-19T23:27:58.369Z,101027.25
2018-07-19T23:30:24.385Z,101028.24
2018-07-19T23:32:50.333Z,101026.06
2018-07-19T23:35:16.307Z,101024.25
2018-07-19T23:37:42.494Z,101028.23
2018-07-19T23:40:08.466Z,101018.59
2018-07-19T23:42:34.515Z,101022.89
2018-07-19T23:45:00.533Z,101013.97
2018-07-19T23:47:26.502Z,101016.98
2018-07-19T23:49:52.447Z,101016.67
2018-07-19T23:52:18.427Z,101017.02
2018-07-19T23:54:44.405Z,101007.37
2018-07-19T23:57:10.409Z,101013.67
2018-07-19T23:59:36.376Z,101008.70
